< Typhoon 197829 1978 Season Typhoon 197901 >
Typhoon 197830 (WINNIE)
General InformationTrack Information on Google MapsDetailed Wind InformationList of All Images || Disaster Info.ResourceGoogle EarthGE AnimationAtom FeedGeoJSON
Detalied Best Track (Time Zone = UTC)
Year Month Day Hour Lat. Long. Pressure (hPa) Wind (kt) Class Image Chart
1978 11 25 12 13.0 154.0 1004 0 2 Image Chart
1978 11 25 18 13.0 153.0 1002 0 2 Image Chart
1978 11 26 00 13.4 152.3 1000 0 2 Image Chart
1978 11 26 06 13.7 151.3 1000 0 2 Image Chart
1978 11 26 12 13.5 150.5 998 0 2 Image Chart
1978 11 26 18 12.5 150.0 998 0 2 Image Chart
1978 11 27 00 12.0 149.8 998 0 2 Image Chart
1978 11 27 06 11.4 149.6 994 0 2 Image Chart
1978 11 27 12 12.6 149.1 994 0 2 Image Chart
1978 11 27 18 13.8 148.5 992 0 2 Image Chart
1978 11 28 00 14.6 148.0 990 35 3 Image Chart
1978 11 28 06 15.8 147.5 985 35 3 Image Chart
1978 11 28 12 17.5 146.8 985 40 3 Image Chart
1978 11 28 18 19.3 146.2 980 50 4 Image Chart
1978 11 29 00 20.8 146.1 980 55 4 Image Chart
1978 11 29 06 22.5 147.0 980 55 4 Image Chart
1978 11 29 12 24.5 148.9 980 50 4 Image Chart
1978 11 29 18 26.7 151.7 980 50 4 Image Chart
1978 11 30 00 28.3 155.1 980 50 4 Image Chart
1978 11 30 06 30.0 159.8 985 45 3 Image Chart
1978 11 30 12 31.5 164.6 990 40 3 Image Chart
1978 11 30 18 33.5 169.5 994 40 3 Image Chart
1978 12 1 00 36.0 174.0 996 0 6 Image Chart
1978 12 1 06 39.0 179.0 992 0 6 Image Chart
Japan Meteorological Agency Best Track Data | Correction Date : 1992-10-21
< Typhoon 197829 1978 Season Typhoon 197901 >

Help